createdAt,value
2024-05-09T00:00:30.760Z,8.50
2024-05-09T00:03:52.512Z,4.40
2024-05-09T00:07:04.491Z,2.80
2024-05-09T00:09:38.424Z,3.60
2024-05-09T00:12:51.448Z,2.20
2024-05-09T00:16:03.906Z,3.20
2024-05-09T00:18:52.877Z,2.90
2024-05-09T00:21:21.093Z,2.70
2024-05-09T00:24:28.851Z,5.40
2024-05-09T00:27:20.480Z,5.30
2024-05-09T00:30:36.738Z,3.30
2024-05-09T00:33:48.600Z,5.20
2024-05-09T00:36:44.625Z,5.70
2024-05-09T00:39:44.124Z,2.60
2024-05-09T00:43:14.187Z,2.60
2024-05-09T00:46:19.880Z,2.30
2024-05-09T00:49:21.068Z,4.10
2024-05-09T00:52:10.377Z,4.50
2024-05-09T00:55:10.404Z,4.90
2024-05-09T00:58:17.385Z,6.70
2024-05-09T01:01:23.773Z,3.10
2024-05-09T01:04:17.768Z,5.50
2024-05-09T01:06:57.832Z,2.90
2024-05-09T01:09:36.342Z,4.60
2024-05-09T01:12:52.418Z,3.60
2024-05-09T01:15:48.336Z,2.90
2024-05-09T01:18:47.159Z,7.10
2024-05-09T01:21:59.222Z,5.30
2024-05-09T01:25:17.790Z,3.30
2024-05-09T01:29:05.532Z,3.50
2024-05-09T01:31:51.535Z,2.70
2024-05-09T01:35:43.476Z,2.70
2024-05-09T01:39:43.529Z,8.40
2024-05-09T01:43:01.470Z,3.20
2024-05-09T01:46:06.583Z,4.50
2024-05-09T01:49:04.058Z,3.10
2024-05-09T01:52:17.672Z,3.80
2024-05-09T01:55:29.353Z,5.80
2024-05-09T01:58:55.008Z,3.80
2024-05-09T02:02:33.888Z,4.60
2024-05-09T02:05:50.429Z,3.80
2024-05-09T02:09:22.047Z,4.90
2024-05-09T02:12:33.739Z,6.40
2024-05-09T02:16:05.620Z,4.60
2024-05-09T02:19:38.187Z,6.50
2024-05-09T02:23:28.727Z,2.30
2024-05-09T02:26:57.171Z,5.70
2024-05-09T02:29:57.908Z,8.60
2024-05-09T02:33:22.826Z,3.20
2024-05-09T02:37:01.606Z,5.20
2024-05-09T02:40:55.908Z,6.30
2024-05-09T02:44:16.718Z,3.70
2024-05-09T02:47:45.869Z,3.50
2024-05-09T02:51:17.500Z,7.50
2024-05-09T02:54:14.360Z,3.20
2024-05-09T02:57:41.808Z,4.60
2024-05-09T03:01:23.436Z,4.80
2024-05-09T03:04:55.330Z,4.10
2024-05-09T03:08:44.007Z,4.50
2024-05-09T03:12:07.165Z,2.60
2024-05-09T03:15:28.233Z,4.60
2024-05-09T03:18:56.561Z,8.10
2024-05-09T03:22:12.457Z,3.20
2024-05-09T03:25:46.730Z,2.20
2024-05-09T03:29:06.946Z,3.80
2024-05-09T03:32:39.095Z,6.60
2024-05-09T03:36:14.158Z,7.50
2024-05-09T03:39:38.248Z,5.00
2024-05-09T03:43:04.183Z,4.50
2024-05-09T03:46:04.909Z,6.80
2024-05-09T03:49:22.466Z,8.40
2024-05-09T03:52:16.626Z,24.90
2024-05-09T03:55:55.766Z,12.80
2024-05-09T03:59:00.375Z,7.40
2024-05-09T04:06:05.012Z,6.00
2024-05-09T04:09:16.282Z,10.30
2024-05-09T04:11:58.157Z,13.90
2024-05-09T04:15:32.491Z,17.10
2024-05-09T04:18:45.529Z,12.50
2024-05-09T04:22:02.460Z,10.00
2024-05-09T04:25:33.246Z,16.10
2024-05-09T04:29:15.840Z,17.60
2024-05-09T04:35:30.150Z,7.00
2024-05-09T04:39:45.802Z,9.10
2024-05-09T04:43:34.623Z,13.40
2024-05-09T04:47:09.246Z,8.80
2024-05-09T17:37:15.578Z,14.60
2024-05-09T17:40:56.115Z,6.60
2024-05-09T17:43:42.009Z,6.20
2024-05-09T17:46:30.991Z,16.30
2024-05-09T17:49:15.593Z,22.50
2024-05-09T17:52:05.270Z,19.20
2024-05-09T17:54:33.828Z,27.70
2024-05-09T17:57:05.036Z,14.10
2024-05-09T17:59:56.271Z,20.20
2024-05-09T18:02:47.879Z,18.50
2024-05-09T18:05:19.047Z,6.00
2024-05-09T18:07:52.714Z,21.30
2024-05-09T18:11:11.189Z,19.00
2024-05-09T18:14:14.906Z,16.30
2024-05-09T18:17:55.257Z,12.20
2024-05-09T18:20:43.946Z,21.20
2024-05-09T18:23:57.385Z,14.90
2024-05-09T18:26:50.055Z,12.10
2024-05-09T18:30:17.359Z,20.20
2024-05-09T18:33:45.708Z,23.50
2024-05-09T18:36:46.399Z,18.30
2024-05-09T18:39:50.592Z,20.20
2024-05-09T18:43:25.948Z,11.00
2024-05-09T18:46:56.325Z,8.10
2024-05-09T18:50:28.607Z,9.80
2024-05-09T18:54:05.650Z,8.20
2024-05-09T18:57:26.471Z,12.30
2024-05-09T19:05:12.487Z,16.60
2024-05-09T19:08:07.599Z,24.20
2024-05-09T19:11:26.233Z,11.50
2024-05-09T19:14:26.190Z,12.70
2024-05-09T19:17:16.329Z,13.60
2024-05-09T19:20:48.524Z,10.00
2024-05-09T19:24:00.315Z,8.30
2024-05-09T19:27:49.331Z,8.10
2024-05-09T19:31:04.112Z,7.90
2024-05-09T19:34:22.201Z,8.80
2024-05-09T19:42:20.719Z,5.40
2024-05-09T19:45:36.217Z,10.90
2024-05-09T19:48:31.470Z,7.10
2024-05-09T19:51:43.003Z,9.90
2024-05-09T19:54:27.085Z,7.50
2024-05-09T19:57:37.688Z,9.20
2024-05-09T20:00:29.411Z,7.90
2024-05-09T20:03:44.090Z,10.50
2024-05-09T20:06:26.298Z,6.60
2024-05-09T20:09:36.364Z,24.00
2024-05-09T20:12:37.811Z,10.80
2024-05-09T20:15:39.548Z,7.80
2024-05-09T20:18:45.279Z,11.30
2024-05-09T20:21:50.552Z,4.50
2024-05-09T20:24:28.397Z,10.60
2024-05-09T20:27:06.343Z,7.10
2024-05-09T20:29:55.726Z,16.40
2024-05-09T20:33:14.506Z,11.00
2024-05-09T20:36:21.967Z,17.90
2024-05-09T20:39:29.849Z,6.60
2024-05-09T20:42:46.739Z,11.40
2024-05-09T20:46:08.346Z,13.90
2024-05-09T20:49:42.830Z,7.60
2024-05-09T20:52:25.240Z,7.40
2024-05-09T20:55:36.506Z,8.00
2024-05-09T20:58:38.871Z,8.50
2024-05-09T21:01:40.451Z,8.00
2024-05-09T21:05:00.984Z,15.30
2024-05-09T21:08:28.255Z,27.80
2024-05-09T21:11:27.908Z,19.50
2024-05-09T21:14:40.195Z,15.60
2024-05-09T21:18:04.961Z,22.30
2024-05-09T21:21:11.426Z,22.90
2024-05-09T21:24:35.374Z,25.10
2024-05-09T21:27:45.016Z,30.20
2024-05-09T21:30:52.225Z,30.90
2024-05-09T21:34:15.078Z,23.20
2024-05-09T21:41:49.062Z,21.40
2024-05-09T21:45:20.344Z,19.80
2024-05-09T21:48:59.552Z,19.40
2024-05-09T21:52:30.044Z,19.30
2024-05-09T21:55:17.903Z,18.30
2024-05-09T21:58:52.435Z,24.50
2024-05-09T22:02:12.443Z,20.30
2024-05-09T22:04:55.678Z,32.70
2024-05-09T22:07:47.350Z,18.50
2024-05-09T22:10:36.543Z,11.20
2024-05-09T22:13:25.899Z,13.60
2024-05-09T22:16:28.140Z,12.80
2024-05-09T22:19:29.445Z,13.00
2024-05-09T22:22:11.426Z,16.20
2024-05-09T22:24:46.453Z,10.30
2024-05-09T22:27:47.187Z,10.50
2024-05-09T22:31:10.334Z,10.50
2024-05-09T22:34:00.737Z,9.90
2024-05-09T22:36:51.680Z,13.90
2024-05-09T22:39:32.128Z,14.50
2024-05-09T22:42:33.235Z,14.70
2024-05-09T22:45:24.707Z,12.20
2024-05-09T22:47:56.726Z,15.80
2024-05-09T22:51:05.552Z,19.30
2024-05-09T22:54:08.767Z,11.80
2024-05-09T22:57:20.490Z,13.20
2024-05-09T23:00:01.021Z,9.20
2024-05-09T23:02:29.753Z,14.90
2024-05-09T23:05:44.300Z,12.60
2024-05-09T23:08:18.689Z,15.20
2024-05-09T23:10:57.051Z,12.80
2024-05-09T23:13:39.326Z,14.00
2024-05-09T23:17:02.957Z,12.50
2024-05-09T23:20:15.071Z,10.00
2024-05-09T23:24:06.751Z,11.90
2024-05-09T23:26:56.213Z,13.20
2024-05-09T23:30:43.883Z,14.60
2024-05-09T23:34:05.035Z,11.90
2024-05-09T23:41:45.791Z,13.10
2024-05-09T23:45:21.777Z,13.10
2024-05-09T23:48:24.963Z,14.70
2024-05-09T23:51:47.932Z,11.60
2024-05-09T23:55:07.541Z,12.50
2024-05-09T23:58:28.817Z,13.40
